createdAt,value
2023-03-26T00:02:30.689Z,3.28
2023-03-26T00:05:33.590Z,3.78
2023-03-26T00:08:37.626Z,4.33
2023-03-26T00:11:40.448Z,3.80
2023-03-26T00:14:43.846Z,2.97
2023-03-26T00:17:51.838Z,3.80
2023-03-26T00:20:54.992Z,4.40
2023-03-26T00:24:15.239Z,4.50
2023-03-26T00:27:18.234Z,4.18
2023-03-26T00:30:20.998Z,3.92
2023-03-26T00:33:24.074Z,4.43
2023-03-26T00:36:30.161Z,3.85
2023-03-26T00:39:33.897Z,4.80
2023-03-26T00:42:40.379Z,4.22
2023-03-26T00:45:43.126Z,3.80
2023-03-26T00:48:47.140Z,3.90
2023-03-26T00:51:50.564Z,3.63
2023-03-26T00:54:53.378Z,3.80
2023-03-26T00:57:56.580Z,4.28
2023-03-26T01:01:07.228Z,3.88
2023-03-26T01:04:31.476Z,3.92
2023-03-26T01:07:35.300Z,4.47
2023-03-26T01:10:44.432Z,3.73
2023-03-26T01:13:50.359Z,3.35
2023-03-26T01:16:58.670Z,3.85
2023-03-26T01:20:15.749Z,3.60
2023-03-26T01:23:24.702Z,3.45
2023-03-26T01:26:47.748Z,3.00
2023-03-26T01:29:54.266Z,4.40
2023-03-26T01:33:07.366Z,4.20
2023-03-26T01:36:44.807Z,4.53
2023-03-26T01:39:53.465Z,3.78
2023-03-26T01:43:09.012Z,3.03
2023-03-26T01:46:14.564Z,3.75
2023-03-26T01:49:18.765Z,3.25
2023-03-26T01:52:26.239Z,3.45
2023-03-26T01:55:43.726Z,2.85
2023-03-26T01:58:59.412Z,3.63
2023-03-26T02:02:21.961Z,3.95
2023-03-26T02:05:54.080Z,3.47
2023-03-26T02:09:03.034Z,3.42
2023-03-26T02:12:07.188Z,3.45
2023-03-26T02:15:13.853Z,3.50
2023-03-26T02:18:16.880Z,3.53
2023-03-26T02:21:21.887Z,4.28
2023-03-26T02:24:24.854Z,3.85
2023-03-26T02:27:31.996Z,4.20
2023-03-26T02:30:35.007Z,3.80
2023-03-26T02:33:37.957Z,3.95
2023-03-26T02:36:43.178Z,4.25
2023-03-26T02:39:46.566Z,3.53
2023-03-26T02:43:00.920Z,3.53
2023-03-26T02:46:06.004Z,3.73
2023-03-26T02:49:30.510Z,3.88
2023-03-26T02:52:33.866Z,4.75
2023-03-26T02:55:36.635Z,4.38
2023-03-26T02:58:39.402Z,4.35
2023-03-26T03:01:46.675Z,3.47
2023-03-26T03:04:52.239Z,3.58
2023-03-26T03:07:58.385Z,3.65
2023-03-26T03:11:10.473Z,3.50
2023-03-26T03:14:19.429Z,4.70
2023-03-26T03:17:26.558Z,4.10
2023-03-26T03:20:31.136Z,3.33
2023-03-26T03:23:34.366Z,4.35
2023-03-26T03:26:50.443Z,4.15
2023-03-26T03:30:19.648Z,3.40
2023-03-26T03:33:22.653Z,4.30
2023-03-26T03:36:28.121Z,3.45
2023-03-26T03:39:40.762Z,4.13
2023-03-26T03:42:45.013Z,3.85
2023-03-26T03:45:49.704Z,4.45
2023-03-26T03:49:06.439Z,3.97
2023-03-26T03:52:12.705Z,3.88
2023-03-26T03:55:18.079Z,3.85
2023-03-26T03:58:28.328Z,4.05
2023-03-26T04:01:35.982Z,3.50
2023-03-26T04:04:50.431Z,3.60
2023-03-26T04:07:56.553Z,3.63
2023-03-26T04:11:02.834Z,3.78
2023-03-26T04:14:33.578Z,4.07
2023-03-26T04:17:45.506Z,4.10
2023-03-26T04:20:50.917Z,4.27
2023-03-26T04:24:02.006Z,3.80
2023-03-26T04:27:44.255Z,4.45
2023-03-26T04:30:57.261Z,3.97
2023-03-26T04:34:24.501Z,3.72
2023-03-26T04:37:46.148Z,4.17
2023-03-26T04:41:07.817Z,4.05
2023-03-26T04:44:22.565Z,3.75
2023-03-26T04:47:37.310Z,4.20
2023-03-26T04:50:45.572Z,4.15
2023-03-26T04:54:00.557Z,5.10
2023-03-26T04:57:12.308Z,3.97
2023-03-26T05:00:36.072Z,3.22
2023-03-26T05:03:41.494Z,4.25
2023-03-26T05:06:47.764Z,3.38
2023-03-26T05:10:03.985Z,4.20
2023-03-26T05:13:16.415Z,4.20
2023-03-26T05:16:24.970Z,4.30
2023-03-26T05:19:33.467Z,3.88
2023-03-26T05:22:38.128Z,4.13
2023-03-26T05:25:52.052Z,3.77
2023-03-26T05:28:58.005Z,2.83
2023-03-26T05:32:07.456Z,3.63
2023-03-26T05:35:10.841Z,4.03
2023-03-26T05:38:13.860Z,3.97
2023-03-26T05:41:17.396Z,3.73
2023-03-26T05:44:22.548Z,3.13
2023-03-26T05:47:27.509Z,2.80
2023-03-26T05:50:30.644Z,3.42
2023-03-26T05:53:36.000Z,3.38
2023-03-26T05:56:59.233Z,3.70
2023-03-26T06:00:22.064Z,2.85
2023-03-26T06:03:29.352Z,2.90
2023-03-26T06:06:47.314Z,3.53
2023-03-26T06:09:52.329Z,3.22
2023-03-26T06:12:56.547Z,2.90
2023-03-26T06:15:59.364Z,2.92
2023-03-26T06:19:07.288Z,3.13
2023-03-26T06:22:29.076Z,2.17
2023-03-26T06:26:04.345Z,2.72
2023-03-26T06:29:27.486Z,2.77
2023-03-26T06:32:42.780Z,2.53
2023-03-26T06:35:50.090Z,3.63
2023-03-26T06:38:53.408Z,2.65
2023-03-26T06:41:56.194Z,3.58
2023-03-26T06:48:57.400Z,3.47
2023-03-26T06:52:31.494Z,2.67
2023-03-26T06:55:57.412Z,3.55
2023-03-26T06:59:16.127Z,3.10
2023-03-26T07:02:37.580Z,3.08
2023-03-26T07:05:59.053Z,3.27
2023-03-26T07:09:30.468Z,2.67
2023-03-26T07:12:53.387Z,3.05
2023-03-26T07:16:28.254Z,3.58
2023-03-26T07:19:50.386Z,3.92
2023-03-26T07:22:53.531Z,3.33
2023-03-26T07:26:57.360Z,3.90
2023-03-26T07:30:39.594Z,2.97
2023-03-26T07:34:07.903Z,2.88
2023-03-26T07:37:39.568Z,3.35
2023-03-26T07:52:43.185Z,3.13
2023-03-26T07:56:16.280Z,2.90
2023-03-26T07:59:56.506Z,2.97
2023-03-26T08:03:28.923Z,3.67
2023-03-26T08:06:36.788Z,2.22
2023-03-26T08:10:08.090Z,3.25
2023-03-26T08:13:57.242Z,2.72
2023-03-26T08:17:17.283Z,3.03
2023-03-26T08:20:26.389Z,2.70
2023-03-26T08:23:50.789Z,2.58
2023-03-26T08:27:21.556Z,2.35
2023-03-26T08:30:26.988Z,3.13
2023-03-26T08:33:31.243Z,2.23
2023-03-26T08:36:34.132Z,2.30
2023-03-26T08:39:39.066Z,2.65
2023-03-26T08:43:06.849Z,2.60
2023-03-26T08:46:28.079Z,2.05
2023-03-26T08:50:01.669Z,2.13
2023-03-26T08:53:37.250Z,2.77
2023-03-26T08:56:53.319Z,3.05
2023-03-26T09:00:32.753Z,1.95
2023-03-26T09:03:35.882Z,2.75
2023-03-26T09:07:01.753Z,2.37
2023-03-26T09:10:14.610Z,2.90
2023-03-26T09:13:23.845Z,2.97
2023-03-26T09:16:53.644Z,2.67
2023-03-26T09:20:19.416Z,2.50
2023-03-26T09:24:00.539Z,3.07
2023-03-26T09:27:14.774Z,2.30
2023-03-26T09:30:29.279Z,2.42
2023-03-26T09:33:56.449Z,2.22
2023-03-26T09:37:23.893Z,2.10
2023-03-26T09:40:44.322Z,1.97
2023-03-26T09:44:19.303Z,2.70
2023-03-26T09:48:01.354Z,1.73
2023-03-26T09:51:27.771Z,2.55
2023-03-26T09:54:46.571Z,2.80
2023-03-26T09:58:25.457Z,3.17
2023-03-26T10:02:10.920Z,2.67
2023-03-26T10:05:22.612Z,2.95
2023-03-26T10:08:52.911Z,2.10
2023-03-26T10:12:05.531Z,2.67
2023-03-26T10:15:23.435Z,2.47
2023-03-26T10:19:25.153Z,2.10
2023-03-26T10:22:56.953Z,2.25
2023-03-26T10:26:13.945Z,1.90
2023-03-26T10:29:42.976Z,2.45
2023-03-26T10:33:13.263Z,3.77
2023-03-26T10:36:29.887Z,2.57
2023-03-26T10:39:51.018Z,1.88
2023-03-26T10:43:00.188Z,2.40
2023-03-26T10:46:17.648Z,3.28
2023-03-26T10:49:33.470Z,2.10
2023-03-26T10:52:49.306Z,2.60
2023-03-26T10:55:58.333Z,2.63
2023-03-26T10:59:07.213Z,2.00
2023-03-26T11:02:30.622Z,1.35
2023-03-26T11:05:48.201Z,2.50
2023-03-26T11:08:57.968Z,2.33
2023-03-26T11:12:26.198Z,1.65
2023-03-26T11:15:45.781Z,1.98
2023-03-26T11:19:11.886Z,2.13
2023-03-26T11:22:42.720Z,2.47
2023-03-26T11:26:08.312Z,1.90
2023-03-26T11:29:33.592Z,2.60
2023-03-26T11:32:50.531Z,2.03
2023-03-26T11:35:58.309Z,2.63
2023-03-26T11:39:05.015Z,1.90
2023-03-26T11:42:14.442Z,2.10
2023-03-26T11:45:24.273Z,1.83
2023-03-26T11:48:40.809Z,2.15
2023-03-26T11:51:47.548Z,2.05
2023-03-26T11:54:50.785Z,2.47
2023-03-26T11:57:58.303Z,2.20
2023-03-26T12:01:05.543Z,2.17
2023-03-26T12:04:15.856Z,1.80
2023-03-26T12:07:32.162Z,2.03
2023-03-26T12:10:43.096Z,1.73
2023-03-26T12:13:59.881Z,1.40
2023-03-26T12:17:11.793Z,1.80
2023-03-26T12:20:26.569Z,2.30
2023-03-26T12:23:51.463Z,2.08
2023-03-26T12:27:20.488Z,1.23
2023-03-26T12:30:26.448Z,2.70
2023-03-26T12:33:34.844Z,1.98
2023-03-26T12:36:39.181Z,2.30
2023-03-26T12:40:09.973Z,2.72
2023-03-26T12:44:48.638Z,2.33
2023-03-26T12:47:57.131Z,1.90
2023-03-26T12:50:17.417Z,1.55
2023-03-26T12:53:52.968Z,3.38
2023-03-26T12:57:17.317Z,1.60
2023-03-26T13:00:42.439Z,2.57
2023-03-26T13:04:12.928Z,2.00
2023-03-26T13:07:53.246Z,1.85
2023-03-26T13:11:17.368Z,2.15
2023-03-26T13:15:04.122Z,2.55
2023-03-26T13:18:21.615Z,2.33
2023-03-26T13:21:39.766Z,2.10
2023-03-26T13:25:01.860Z,2.08
2023-03-26T13:28:43.008Z,1.75
2023-03-26T13:32:09.600Z,1.58
2023-03-26T13:36:00.224Z,2.00
2023-03-26T13:40:05.094Z,2.10
2023-03-26T13:43:36.715Z,1.45
2023-03-26T13:46:55.071Z,1.30
2023-03-26T13:50:10.515Z,1.50
2023-03-26T13:53:16.447Z,1.93
2023-03-26T13:56:29.625Z,2.07
2023-03-26T13:59:44.161Z,2.72
2023-03-26T14:02:55.056Z,1.73
2023-03-26T14:06:02.629Z,2.45
2023-03-26T14:09:12.708Z,1.83
2023-03-26T14:12:41.046Z,1.63
2023-03-26T14:16:22.655Z,2.05
2023-03-26T14:19:48.320Z,1.98
2023-03-26T14:23:19.885Z,1.98
2023-03-26T14:27:13.288Z,2.00
2023-03-26T14:30:34.584Z,2.23
2023-03-26T14:33:52.697Z,1.73
2023-03-26T14:37:28.119Z,1.88
2023-03-26T14:40:38.584Z,1.23
2023-03-26T14:43:59.367Z,1.70
2023-03-26T14:47:14.911Z,2.43
2023-03-26T14:50:47.921Z,2.25
2023-03-26T14:54:01.006Z,1.55
2023-03-26T14:57:22.178Z,1.92
2023-03-26T15:00:49.513Z,2.10
2023-03-26T15:04:01.742Z,1.87
2023-03-26T15:07:39.164Z,2.20
2023-03-26T15:10:50.108Z,1.55
2023-03-26T15:14:28.880Z,2.63
2023-03-26T15:18:00.718Z,1.40
2023-03-26T15:21:29.492Z,1.30
2023-03-26T15:25:15.869Z,2.08
2023-03-26T15:28:55.877Z,1.38
2023-03-26T15:32:22.526Z,2.40
2023-03-26T15:35:54.189Z,2.90
2023-03-26T15:39:30.824Z,2.33
2023-03-26T15:43:10.150Z,2.03
2023-03-26T15:46:38.141Z,2.28
2023-03-26T15:49:48.175Z,1.80
2023-03-26T15:53:18.821Z,1.87
2023-03-26T15:56:43.917Z,1.70
2023-03-26T15:59:59.500Z,2.50
2023-03-26T16:03:12.012Z,1.58
2023-03-26T16:06:41.966Z,1.70
2023-03-26T16:10:06.185Z,1.50
2023-03-26T16:13:53.706Z,1.73
2023-03-26T16:17:00.021Z,2.03
2023-03-26T16:20:47.169Z,2.10
2023-03-26T16:23:54.124Z,1.50
2023-03-26T16:27:08.638Z,2.93
2023-03-26T16:30:32.066Z,1.70
2023-03-26T16:34:19.445Z,2.50
2023-03-26T16:37:44.602Z,3.65
2023-03-26T16:41:40.868Z,2.03
2023-03-26T16:45:18.530Z,2.83
2023-03-26T16:48:50.296Z,2.17
2023-03-26T16:52:11.315Z,2.22
2023-03-26T16:55:21.596Z,2.50
2023-03-26T16:58:31.592Z,2.00
2023-03-26T17:01:52.440Z,2.67
2023-03-26T17:05:19.454Z,1.93
2023-03-26T17:08:48.146Z,2.97
2023-03-26T17:12:03.371Z,2.70
2023-03-26T17:15:25.143Z,2.03
2023-03-26T17:18:41.572Z,2.83
2023-03-26T17:22:06.740Z,2.27
2023-03-26T17:25:22.168Z,1.95
2023-03-26T17:29:00.328Z,2.17
2023-03-26T17:32:12.109Z,1.92
2023-03-26T17:35:16.478Z,3.33
2023-03-26T17:38:25.973Z,2.10
2023-03-26T17:42:07.533Z,2.60
2023-03-26T17:45:29.294Z,3.25
2023-03-26T17:48:41.459Z,2.20
2023-03-26T17:52:17.648Z,2.57
2023-03-26T17:55:28.585Z,3.10
2023-03-26T17:58:44.703Z,2.22
2023-03-26T18:02:04.111Z,3.28
2023-03-26T18:05:13.171Z,3.25
2023-03-26T18:08:50.324Z,2.90
2023-03-26T18:12:29.269Z,3.73
2023-03-26T18:15:39.572Z,3.97
2023-03-26T18:18:58.617Z,3.05
2023-03-26T18:22:08.018Z,3.50
2023-03-26T18:25:31.858Z,3.10
2023-03-26T18:28:41.810Z,3.93
2023-03-26T18:31:49.007Z,2.92
2023-03-26T18:35:21.178Z,3.92
2023-03-26T18:38:36.095Z,3.92
2023-03-26T18:41:44.048Z,2.67
2023-03-26T18:44:51.832Z,2.93
2023-03-26T18:48:03.196Z,3.85
2023-03-26T18:51:10.916Z,3.70
2023-03-26T18:54:27.724Z,3.13
2023-03-26T18:57:32.167Z,3.13
2023-03-26T19:00:40.904Z,3.73
2023-03-26T19:03:45.923Z,3.35
2023-03-26T19:06:54.418Z,2.35
2023-03-26T19:10:02.065Z,3.35
2023-03-26T19:13:07.014Z,2.80
2023-03-26T19:16:26.590Z,3.07
2023-03-26T19:19:34.828Z,2.70
2023-03-26T19:22:41.664Z,3.08
2023-03-26T19:25:51.317Z,3.95
2023-03-26T19:28:56.986Z,3.03
2023-03-26T19:32:17.010Z,3.53
2023-03-26T19:35:24.035Z,3.60
2023-03-26T19:38:30.920Z,2.63
2023-03-26T19:41:41.773Z,3.10
2023-03-26T19:44:47.283Z,2.63
2023-03-26T19:48:03.703Z,3.57
2023-03-26T19:51:21.112Z,4.93
2023-03-26T19:54:25.895Z,3.83
2023-03-26T19:57:35.061Z,2.88
2023-03-26T20:00:41.021Z,2.83
2023-03-26T20:03:47.671Z,3.57
2023-03-26T20:06:53.569Z,3.85
2023-03-26T20:09:57.748Z,3.22
2023-03-26T20:13:01.771Z,4.00
2023-03-26T20:16:13.443Z,3.00
2023-03-26T20:19:17.213Z,4.17
2023-03-26T20:22:21.943Z,2.97
2023-03-26T20:25:33.128Z,2.72
2023-03-26T20:28:47.281Z,2.97
2023-03-26T20:31:52.668Z,1.90
2023-03-26T20:34:55.994Z,3.77
2023-03-26T20:38:00.473Z,3.13
2023-03-26T20:41:06.303Z,2.38
2023-03-26T20:44:13.903Z,3.78
2023-03-26T20:47:17.421Z,3.63
2023-03-26T20:50:23.377Z,3.03
2023-03-26T20:53:26.773Z,2.38
2023-03-26T20:56:29.671Z,2.97
2023-03-26T20:59:32.922Z,2.97
2023-03-26T21:02:36.105Z,3.00
2023-03-26T21:05:41.033Z,3.17
2023-03-26T21:08:44.846Z,2.97
2023-03-26T21:11:56.074Z,3.10
2023-03-26T21:14:59.594Z,2.83
2023-03-26T21:18:02.740Z,3.47
2023-03-26T21:21:24.239Z,3.30
2023-03-26T21:24:45.822Z,2.88
2023-03-26T21:28:01.281Z,3.55
2023-03-26T21:31:06.381Z,2.90
2023-03-26T21:34:12.421Z,3.13
2023-03-26T21:37:18.100Z,3.90
2023-03-26T21:40:21.216Z,2.03
2023-03-26T21:43:24.191Z,1.70
2023-03-26T21:46:27.249Z,2.38
2023-03-26T21:49:30.356Z,3.10
2023-03-26T21:52:33.581Z,2.60
2023-03-26T21:55:56.693Z,2.67
2023-03-26T21:59:34.423Z,2.47
2023-03-26T22:02:52.109Z,2.92
2023-03-26T22:06:07.367Z,2.80
2023-03-26T22:09:12.792Z,2.53
2023-03-26T22:12:16.821Z,2.53
2023-03-26T22:15:20.146Z,3.08
2023-03-26T22:18:26.107Z,2.85
2023-03-26T22:21:29.071Z,2.90
2023-03-26T22:24:32.447Z,2.70
2023-03-26T22:27:35.205Z,3.03
2023-03-26T22:30:47.178Z,2.60
2023-03-26T22:33:54.859Z,2.75
2023-03-26T22:36:57.697Z,3.00
2023-03-26T22:40:01.465Z,2.47
2023-03-26T22:43:04.272Z,3.03
2023-03-26T22:46:07.519Z,3.17
2023-03-26T22:49:10.457Z,3.83
2023-03-26T22:52:13.278Z,2.53
2023-03-26T22:55:16.515Z,2.73
2023-03-26T22:58:34.112Z,2.33
2023-03-26T23:01:37.027Z,2.67
2023-03-26T23:04:42.800Z,1.92
2023-03-26T23:07:46.301Z,1.93
2023-03-26T23:10:49.086Z,1.67
2023-03-26T23:13:52.295Z,2.15
2023-03-26T23:16:55.570Z,2.15
2023-03-26T23:20:00.831Z,1.98
2023-03-26T23:23:03.948Z,2.73
2023-03-26T23:26:07.159Z,2.27
2023-03-26T23:29:10.170Z,2.42
2023-03-26T23:32:24.627Z,3.03
2023-03-26T23:35:27.751Z,2.60
2023-03-26T23:38:43.613Z,2.13
2023-03-26T23:41:47.268Z,3.17
2023-03-26T23:44:50.027Z,2.92
2023-03-26T23:47:52.803Z,2.92
2023-03-26T23:51:04.194Z,2.03
2023-03-26T23:54:08.882Z,2.53
2023-03-26T23:57:11.869Z,2.97
